createdAt,value
2023-02-23T00:00:40.602Z,89.87
2023-02-23T00:01:40.795Z,89.98
2023-02-23T00:02:40.996Z,89.98
2023-02-23T00:03:41.214Z,89.87
2023-02-23T00:04:41.408Z,89.87
2023-02-23T00:05:41.608Z,89.77
2023-02-23T00:06:41.804Z,89.87
2023-02-23T00:07:41.997Z,89.98
2023-02-23T00:08:42.180Z,89.98
2023-02-23T00:09:42.406Z,90.08
2023-02-23T00:10:42.590Z,90.19
2023-02-23T00:11:42.789Z,90.19
2023-02-23T00:12:42.968Z,90.08
2023-02-23T00:13:43.161Z,90.08
2023-02-23T00:14:43.378Z,90.19
2023-02-23T00:15:43.576Z,90.29
2023-02-23T00:16:43.798Z,90.29
2023-02-23T00:17:43.993Z,90.39
2023-02-23T00:18:44.194Z,90.39
2023-02-23T00:19:44.369Z,90.50
2023-02-23T00:20:44.563Z,90.39
2023-02-23T00:21:44.756Z,90.50
2023-02-23T00:22:44.932Z,90.53
2023-02-23T00:23:45.134Z,90.60
2023-02-23T00:24:45.337Z,90.53
2023-02-23T00:25:45.535Z,90.53
2023-02-23T00:26:45.715Z,90.53
2023-02-23T00:27:45.903Z,90.64
2023-02-23T00:28:46.089Z,90.74
2023-02-23T00:29:46.286Z,90.64
2023-02-23T00:30:46.496Z,90.74
2023-02-23T00:31:46.775Z,90.64
2023-02-23T00:32:46.906Z,90.53
2023-02-23T00:33:46.978Z,90.53
2023-02-23T00:34:47.172Z,90.64
2023-02-23T00:35:47.376Z,90.53
2023-02-23T00:36:47.542Z,90.64
2023-02-23T00:37:47.743Z,90.84
2023-02-23T00:38:47.917Z,90.95
2023-02-23T00:39:48.116Z,90.84
2023-02-23T00:40:48.290Z,90.95
2023-02-23T00:41:48.483Z,90.95
2023-02-23T00:42:48.662Z,91.05
2023-02-23T00:43:48.843Z,91.05
2023-02-23T00:44:49.071Z,91.05
2023-02-23T00:45:49.268Z,91.05
2023-02-23T00:46:49.477Z,91.05
2023-02-23T00:47:49.679Z,91.05
2023-02-23T00:48:49.874Z,91.05
2023-02-23T00:49:50.092Z,91.05
2023-02-23T00:50:50.271Z,90.95
2023-02-23T00:51:50.465Z,90.95
2023-02-23T00:52:50.654Z,90.84
2023-02-23T00:53:50.861Z,90.64
2023-02-23T00:54:51.073Z,90.64
2023-02-23T00:55:51.287Z,90.95
2023-02-23T00:56:51.498Z,90.95
2023-02-23T00:57:51.709Z,91.05
2023-02-23T00:58:51.906Z,90.84
2023-02-23T00:59:52.142Z,90.74
2023-02-23T01:00:52.194Z,91.05
2023-02-23T01:01:52.382Z,91.16
2023-02-23T01:02:52.571Z,91.05
2023-02-23T01:03:52.760Z,91.05
2023-02-23T01:04:52.955Z,91.05
2023-02-23T01:05:53.142Z,91.16
2023-02-23T01:06:53.329Z,91.05
2023-02-23T01:07:53.518Z,90.95
2023-02-23T01:08:53.695Z,90.95
2023-02-23T01:09:53.895Z,90.84
2023-02-23T01:10:54.066Z,90.95
2023-02-23T01:11:54.269Z,90.95
2023-02-23T01:12:54.438Z,90.95
2023-02-23T01:13:54.631Z,90.64
2023-02-23T01:14:54.821Z,90.74
2023-02-23T01:15:55.023Z,90.95
2023-02-23T01:16:55.189Z,91.16
2023-02-23T01:17:55.450Z,91.26
2023-02-23T01:18:55.505Z,91.26
2023-02-23T01:19:55.695Z,91.16
2023-02-23T01:20:55.877Z,91.16
2023-02-23T01:21:56.062Z,91.16
2023-02-23T01:22:56.251Z,91.26
2023-02-23T01:23:56.422Z,91.47
2023-02-23T01:24:56.633Z,91.36
2023-02-23T01:25:56.822Z,91.26
2023-02-23T01:26:57.002Z,91.47
2023-02-23T01:27:57.197Z,91.57
2023-02-23T01:28:57.382Z,91.67
2023-02-23T01:29:57.602Z,91.67
2023-02-23T01:30:57.805Z,91.36
2023-02-23T01:31:58.031Z,91.47
2023-02-23T01:32:58.030Z,91.78
2023-02-23T01:33:58.220Z,91.67
2023-02-23T01:34:58.424Z,91.47
2023-02-23T01:35:58.656Z,91.57
2023-02-23T01:36:58.823Z,91.47
2023-02-23T01:37:59.019Z,91.47
2023-02-23T01:38:59.222Z,91.67
2023-02-23T01:39:59.438Z,91.72
2023-02-23T01:40:59.618Z,91.82
2023-02-23T01:41:59.820Z,91.82
2023-02-23T01:43:00.001Z,91.82
2023-02-23T01:44:00.204Z,91.72
2023-02-23T01:45:00.420Z,91.82
2023-02-23T01:46:00.702Z,91.93
2023-02-23T01:47:00.786Z,92.03
2023-02-23T01:48:00.985Z,92.19
2023-02-23T01:49:01.175Z,92.19
2023-02-23T01:50:01.392Z,91.99
2023-02-23T01:51:01.565Z,91.67
2023-02-23T01:52:01.777Z,91.99
2023-02-23T01:53:01.962Z,91.88
2023-02-23T01:54:02.164Z,91.78
2023-02-23T01:55:02.370Z,91.99
2023-02-23T01:56:02.573Z,92.09
2023-02-23T01:57:02.756Z,91.67
2023-02-23T01:58:02.966Z,91.36
2023-02-23T01:59:03.163Z,91.47
2023-02-23T02:00:03.394Z,91.36
2023-02-23T02:01:03.462Z,91.41
2023-02-23T02:02:03.651Z,91.61
2023-02-23T02:03:03.829Z,91.93
2023-02-23T02:04:04.021Z,91.72
2023-02-23T02:05:04.278Z,91.93
2023-02-23T02:06:04.379Z,92.03
2023-02-23T02:07:04.567Z,91.93
2023-02-23T02:08:04.758Z,91.93
2023-02-23T02:09:04.938Z,92.03
2023-02-23T02:10:05.137Z,92.13
2023-02-23T02:11:05.304Z,92.24
2023-02-23T02:12:05.499Z,92.24
2023-02-23T02:13:05.675Z,92.24
2023-02-23T02:14:05.874Z,92.44
2023-02-23T02:15:06.078Z,92.34
2023-02-23T02:16:06.306Z,92.34
2023-02-23T02:17:06.486Z,92.34
2023-02-23T02:18:06.691Z,92.24
2023-02-23T02:19:06.876Z,92.34
2023-02-23T02:20:07.080Z,92.24
2023-02-23T02:21:07.263Z,92.38
2023-02-23T02:22:07.447Z,92.44
2023-02-23T02:23:07.632Z,92.49
2023-02-23T02:24:07.830Z,92.55
2023-02-23T02:25:08.097Z,92.49
2023-02-23T02:26:08.155Z,92.59
2023-02-23T02:27:08.333Z,92.59
2023-02-23T02:28:08.537Z,92.69
2023-02-23T02:29:08.704Z,92.69
2023-02-23T02:30:08.904Z,92.80
2023-02-23T02:31:09.116Z,92.49
2023-02-23T02:32:09.334Z,92.59
2023-02-23T02:33:09.508Z,92.69
2023-02-23T02:34:09.692Z,92.59
2023-02-23T02:35:09.908Z,92.59
2023-02-23T02:36:10.098Z,92.59
2023-02-23T02:37:10.280Z,92.59
2023-02-23T02:38:10.516Z,92.80
2023-02-23T02:39:10.604Z,93.00
2023-02-23T02:40:10.832Z,92.90
2023-02-23T02:41:11.032Z,92.90
2023-02-23T02:42:11.230Z,92.69
2023-02-23T02:43:11.427Z,92.69
2023-02-23T02:44:11.601Z,92.69
2023-02-23T02:45:11.821Z,92.69
2023-02-23T02:46:12.045Z,92.90
2023-02-23T02:47:12.197Z,93.00
2023-02-23T02:48:12.414Z,92.90
2023-02-23T02:49:12.612Z,92.80
2023-02-23T02:50:12.836Z,92.90
2023-02-23T02:51:13.044Z,93.00
2023-02-23T02:52:13.228Z,92.90
2023-02-23T02:53:13.421Z,92.90
2023-02-23T02:54:13.604Z,92.80
2023-02-23T02:55:13.834Z,92.90
2023-02-23T02:56:14.003Z,93.00
2023-02-23T02:57:14.174Z,92.90
2023-02-23T02:58:14.378Z,92.80
2023-02-23T02:59:14.569Z,92.80
2023-02-23T03:00:21.793Z,92.69
2023-02-23T03:01:15.005Z,92.69
2023-02-23T03:02:15.160Z,92.90
2023-02-23T03:03:15.347Z,92.90
2023-02-23T03:04:15.546Z,93.00
2023-02-23T03:05:15.781Z,93.10
2023-02-23T03:06:15.910Z,93.00
2023-02-23T03:07:16.092Z,93.00
2023-02-23T03:08:16.294Z,93.00
2023-02-23T03:09:16.489Z,93.15
2023-02-23T03:10:16.676Z,93.31
2023-02-23T03:11:17.236Z,93.35
2023-02-23T03:12:17.085Z,93.41
2023-02-23T03:13:17.290Z,93.31
2023-02-23T03:14:17.466Z,93.31
2023-02-23T03:15:17.662Z,93.21
2023-02-23T03:16:17.901Z,93.21
2023-02-23T03:17:18.061Z,93.31
2023-02-23T03:18:18.246Z,93.21
2023-02-23T03:19:18.441Z,93.10
2023-02-23T03:20:18.614Z,93.10
2023-02-23T03:21:19.061Z,93.25
2023-02-23T03:22:18.927Z,93.35
2023-02-23T03:23:19.137Z,93.35
2023-02-23T03:24:19.320Z,93.46
2023-02-23T03:25:19.530Z,93.66
2023-02-23T03:26:19.724Z,93.56
2023-02-23T03:27:19.919Z,93.46
2023-02-23T03:28:20.115Z,93.46
2023-02-23T03:29:20.311Z,93.56
2023-02-23T03:30:20.502Z,93.66
2023-02-23T03:31:21.123Z,93.46
2023-02-23T03:32:20.949Z,93.46
2023-02-23T03:33:20.985Z,93.56
2023-02-23T03:34:21.158Z,93.66
2023-02-23T03:35:21.365Z,93.77
2023-02-23T03:36:21.567Z,93.87
2023-02-23T03:37:21.767Z,93.98
2023-02-23T03:38:21.949Z,94.08
2023-02-23T03:39:22.132Z,94.08
2023-02-23T03:40:22.320Z,94.08
2023-02-23T03:41:22.520Z,94.08
2023-02-23T03:42:22.718Z,94.08
2023-02-23T03:43:22.891Z,94.18
2023-02-23T03:44:23.095Z,94.18
2023-02-23T03:45:23.312Z,94.12
2023-02-23T03:46:23.491Z,94.33
2023-02-23T03:47:23.697Z,94.43
2023-02-23T03:48:23.870Z,94.43
2023-02-23T03:49:24.129Z,94.43
2023-02-23T03:50:24.211Z,94.33
2023-02-23T03:51:24.408Z,94.43
2023-02-23T03:52:24.595Z,94.43
2023-02-23T03:53:24.796Z,94.64
2023-02-23T03:54:24.996Z,94.74
2023-02-23T03:55:25.202Z,94.74
2023-02-23T03:56:25.405Z,94.85
2023-02-23T03:57:25.644Z,94.85
2023-02-23T03:58:25.732Z,95.06
2023-02-23T03:59:25.933Z,94.74
2023-02-23T04:00:26.134Z,94.95
2023-02-23T04:01:26.340Z,94.95
2023-02-23T04:02:26.521Z,94.85
2023-02-23T04:03:26.748Z,94.74
2023-02-23T04:04:26.938Z,95.06
2023-02-23T04:05:27.143Z,95.06
2023-02-23T04:06:27.358Z,95.06
2023-02-23T04:07:27.562Z,94.95
2023-02-23T04:08:27.758Z,94.74
2023-02-23T04:09:27.948Z,94.74
2023-02-23T04:10:28.133Z,95.06
2023-02-23T04:11:28.363Z,94.85
2023-02-23T04:12:28.544Z,94.95
2023-02-23T04:13:28.757Z,95.06
2023-02-23T04:14:28.946Z,94.95
2023-02-23T04:15:29.149Z,95.16
2023-02-23T04:16:29.388Z,94.95
2023-02-23T04:17:29.576Z,94.95
2023-02-23T04:18:29.757Z,95.06
2023-02-23T04:19:29.955Z,95.26
2023-02-23T04:20:30.186Z,95.37
2023-02-23T04:21:30.335Z,95.26
2023-02-23T04:22:30.530Z,95.16
2023-02-23T04:23:30.736Z,95.37
2023-02-23T04:24:30.927Z,95.26
2023-02-23T04:25:31.120Z,95.37
2023-02-23T04:26:31.342Z,95.68
2023-02-23T04:27:31.557Z,95.47
2023-02-23T04:28:31.735Z,95.26
2023-02-23T04:29:31.947Z,95.37
2023-02-23T04:30:32.178Z,95.16
2023-02-23T04:31:32.401Z,95.16
2023-02-23T04:32:32.566Z,95.26
2023-02-23T04:33:32.647Z,95.37
2023-02-23T04:34:32.806Z,95.47
2023-02-23T04:35:32.963Z,95.47
2023-02-23T04:36:33.170Z,95.37
2023-02-23T04:37:33.374Z,95.26
2023-02-23T04:38:33.584Z,95.16
2023-02-23T04:39:33.792Z,95.47
2023-02-23T04:40:33.988Z,95.37
2023-02-23T04:41:34.201Z,95.41
2023-02-23T04:42:34.392Z,95.68
2023-02-23T04:43:34.607Z,95.68
2023-02-23T04:44:34.800Z,95.68
2023-02-23T04:45:34.992Z,95.47
2023-02-23T04:46:35.203Z,95.47
2023-02-23T04:47:35.403Z,95.47
2023-02-23T04:48:35.585Z,95.37
2023-02-23T04:49:35.802Z,95.37
2023-02-23T04:50:36.002Z,95.26
2023-02-23T04:51:36.218Z,95.31
2023-02-23T04:52:36.422Z,95.41
2023-02-23T04:53:36.609Z,95.51
2023-02-23T04:54:36.804Z,95.41
2023-02-23T04:55:36.992Z,95.41
2023-02-23T04:56:37.212Z,95.62
2023-02-23T04:57:37.409Z,95.83
2023-02-23T04:58:37.602Z,95.93
2023-02-23T04:59:37.817Z,95.83
2023-02-23T05:00:37.939Z,95.93
2023-02-23T05:01:38.165Z,95.83
2023-02-23T05:02:38.315Z,95.72
2023-02-23T05:03:38.496Z,95.93
2023-02-23T05:04:38.685Z,96.24
2023-02-23T05:05:38.810Z,96.14
2023-02-23T05:06:39.011Z,96.24
2023-02-23T05:07:39.212Z,96.24
2023-02-23T05:08:39.395Z,96.24
2023-02-23T05:09:41.117Z,96.14
2023-02-23T05:10:40.477Z,96.34
2023-02-23T05:11:39.924Z,96.24
2023-02-23T05:12:40.121Z,95.93
2023-02-23T05:13:40.346Z,95.77
2023-02-23T05:14:40.534Z,95.87
2023-02-23T05:15:40.820Z,96.19
2023-02-23T05:16:40.898Z,96.29
2023-02-23T05:17:41.139Z,96.39
2023-02-23T05:18:41.325Z,96.29
2023-02-23T05:19:41.570Z,96.29
2023-02-23T05:20:41.752Z,96.29
2023-02-23T05:21:41.987Z,96.19
2023-02-23T05:22:42.202Z,96.19
2023-02-23T05:23:42.410Z,96.19
2023-02-23T05:24:42.620Z,96.19
2023-02-23T05:25:42.855Z,96.39
2023-02-23T05:26:43.075Z,96.50
2023-02-23T05:27:43.289Z,96.44
2023-02-23T05:28:43.499Z,96.54
2023-02-23T05:29:43.701Z,96.64
2023-02-23T05:30:43.988Z,96.85
2023-02-23T05:31:44.260Z,96.85
2023-02-23T05:32:44.258Z,96.95
2023-02-23T05:33:44.482Z,96.95
2023-02-23T05:34:44.703Z,96.85
2023-02-23T05:35:44.884Z,96.85
2023-02-23T05:36:45.132Z,96.95
2023-02-23T05:37:45.348Z,97.06
2023-02-23T05:38:45.556Z,97.06
2023-02-23T05:39:45.749Z,96.95
2023-02-23T05:40:45.959Z,96.85
2023-02-23T05:41:46.198Z,96.95
2023-02-23T05:42:46.423Z,97.16
2023-02-23T05:43:46.690Z,97.16
2023-02-23T05:44:46.794Z,97.27
2023-02-23T05:45:47.025Z,97.06
2023-02-23T05:46:47.284Z,97.06
2023-02-23T05:47:47.523Z,97.27
2023-02-23T05:48:47.657Z,97.27
2023-02-23T05:49:47.878Z,97.16
2023-02-23T05:50:48.005Z,97.27
2023-02-23T05:51:48.276Z,97.31
2023-02-23T05:52:48.465Z,97.41
2023-02-23T05:53:48.633Z,97.62
2023-02-23T05:54:48.766Z,97.83
2023-02-23T05:55:48.996Z,97.68
2023-02-23T05:56:49.246Z,97.52
2023-02-23T05:57:49.364Z,97.52
2023-02-23T05:58:49.579Z,97.62
2023-02-23T05:59:49.806Z,97.72
2023-02-23T06:00:50.023Z,97.83
2023-02-23T06:01:50.279Z,97.72
2023-02-23T06:02:50.419Z,97.72
2023-02-23T06:03:50.725Z,97.83
2023-02-23T06:04:50.816Z,97.72
2023-02-23T06:05:51.067Z,97.62
2023-02-23T06:06:51.294Z,97.72
2023-02-23T06:07:51.542Z,97.72
2023-02-23T06:08:51.665Z,97.72
2023-02-23T06:09:51.958Z,97.83
2023-02-23T06:10:52.100Z,97.83
2023-02-23T06:11:52.241Z,97.83
2023-02-23T06:12:52.370Z,97.83
2023-02-23T06:13:53.513Z,97.83
2023-02-23T06:14:52.733Z,97.72
2023-02-23T06:15:53.053Z,97.62
2023-02-23T06:16:53.216Z,97.72
2023-02-23T06:17:53.330Z,97.72
2023-02-23T06:18:53.475Z,97.72
2023-02-23T06:19:53.621Z,97.62
2023-02-23T06:20:53.775Z,97.62
2023-02-23T06:21:54.442Z,97.62
2023-02-23T06:22:54.198Z,97.72
2023-02-23T06:23:54.348Z,97.62
2023-02-23T06:24:54.487Z,97.62
2023-02-23T06:25:54.730Z,97.52
2023-02-23T06:26:54.865Z,97.41
2023-02-23T06:27:55.149Z,97.41
2023-02-23T06:28:55.291Z,97.31
2023-02-23T06:29:55.425Z,97.31
2023-02-23T06:30:55.754Z,97.27
2023-02-23T06:31:55.849Z,97.10
2023-02-23T06:32:55.945Z,96.95
2023-02-23T06:33:56.156Z,96.85
2023-02-23T06:34:56.855Z,96.75
2023-02-23T06:35:56.568Z,96.64
2023-02-23T06:36:56.727Z,96.75
2023-02-23T06:37:56.925Z,96.64
2023-02-23T06:38:57.062Z,96.54
2023-02-23T06:39:57.230Z,96.44
2023-02-23T06:40:57.345Z,96.54
2023-02-23T06:41:57.622Z,96.44
2023-02-23T06:42:59.171Z,96.44
2023-02-23T06:43:57.939Z,96.54
2023-02-23T06:44:58.051Z,96.44
2023-02-23T06:45:58.293Z,96.33
2023-02-23T06:46:58.423Z,96.12
2023-02-23T06:47:58.673Z,96.12
2023-02-23T06:48:58.810Z,96.33
2023-02-23T06:49:58.970Z,96.19
2023-02-23T06:51:00.068Z,95.98
2023-02-23T06:51:59.333Z,95.87
2023-02-23T06:52:59.490Z,95.87
2023-02-23T06:53:59.638Z,95.56
2023-02-23T06:54:59.767Z,95.36
2023-02-23T06:56:00.041Z,95.36
2023-02-23T06:57:00.166Z,95.31
2023-02-23T06:58:01.166Z,95.20
2023-02-23T06:59:00.500Z,94.89
2023-02-23T07:00:00.616Z,94.68
2023-02-23T07:01:00.853Z,94.63
2023-02-23T07:02:01.192Z,95.04
2023-02-23T07:03:01.296Z,95.10
2023-02-23T07:04:01.998Z,94.79
2023-02-23T07:05:01.776Z,94.84
2023-02-23T07:06:02.084Z,94.89
2023-02-23T07:07:02.242Z,95.00
2023-02-23T07:08:02.370Z,94.48
2023-02-23T07:09:02.650Z,94.58
2023-02-23T07:10:02.828Z,94.58
2023-02-23T07:11:03.804Z,94.58
2023-02-23T07:12:03.121Z,94.58
2023-02-23T07:13:03.349Z,94.58
2023-02-23T07:14:03.622Z,94.48
2023-02-23T07:15:03.740Z,94.37
2023-02-23T07:16:03.884Z,94.48
2023-02-23T07:17:04.081Z,94.48
2023-02-23T07:18:04.304Z,94.37
2023-02-23T07:19:05.413Z,94.27
2023-02-23T07:20:04.704Z,94.27
2023-02-23T07:21:04.970Z,94.27
2023-02-23T07:22:05.096Z,94.17
2023-02-23T07:23:05.291Z,94.06
2023-02-23T07:24:05.538Z,94.06
2023-02-23T07:25:05.639Z,94.06
2023-02-23T07:26:05.839Z,94.12
2023-02-23T07:27:06.087Z,93.91
2023-02-23T07:28:06.289Z,93.81
2023-02-23T07:29:06.535Z,93.75
2023-02-23T07:30:06.653Z,93.85
2023-02-23T07:31:06.952Z,94.06
2023-02-23T07:32:07.124Z,94.12
2023-02-23T07:33:07.193Z,94.02
2023-02-23T07:34:07.436Z,93.81
2023-02-23T07:35:07.534Z,94.02
2023-02-23T07:36:07.764Z,93.81
2023-02-23T07:37:08.020Z,93.91
2023-02-23T07:38:08.174Z,93.60
2023-02-23T07:39:08.296Z,93.50
2023-02-23T07:40:08.502Z,93.56
2023-02-23T07:41:08.729Z,93.56
2023-02-23T07:42:08.922Z,93.15
2023-02-23T07:43:09.138Z,93.04
2023-02-23T07:44:09.348Z,93.04
2023-02-23T07:45:09.575Z,92.74
2023-02-23T07:46:09.874Z,92.63
2023-02-23T07:47:09.987Z,92.49
2023-02-23T07:48:10.210Z,92.38
2023-02-23T07:49:10.432Z,92.28
2023-02-23T07:50:10.648Z,92.18
2023-02-23T07:51:10.827Z,91.97
2023-02-23T07:52:11.020Z,91.93
2023-02-23T07:53:12.218Z,91.61
2023-02-23T07:54:11.422Z,91.30
2023-02-23T07:55:11.603Z,91.09
2023-02-23T07:56:11.791Z,90.89
2023-02-23T07:57:11.989Z,90.89
2023-02-23T07:58:12.175Z,90.74
2023-02-23T07:59:12.384Z,90.53
2023-02-23T08:00:12.571Z,90.33
2023-02-23T08:01:12.759Z,90.29
2023-02-23T08:02:12.971Z,89.67
2023-02-23T08:03:13.117Z,89.11
2023-02-23T08:04:13.368Z,88.70
2023-02-23T08:05:13.468Z,88.49
2023-02-23T08:06:13.682Z,88.94
2023-02-23T08:07:13.860Z,88.84
2023-02-23T08:08:14.028Z,88.59
2023-02-23T08:09:14.223Z,88.39
2023-02-23T08:10:14.394Z,88.28
2023-02-23T08:11:14.573Z,88.07
2023-02-23T08:12:14.734Z,88.07
2023-02-23T08:13:14.901Z,88.14
2023-02-23T08:14:15.095Z,87.68
2023-02-23T08:15:15.260Z,86.96
2023-02-23T08:16:15.417Z,86.34
2023-02-23T08:17:15.591Z,86.20
2023-02-23T08:18:15.780Z,85.99
2023-02-23T08:19:15.980Z,85.41
2023-02-23T08:20:16.142Z,86.13
2023-02-23T08:21:16.303Z,86.65
2023-02-23T08:22:16.470Z,86.44
2023-02-23T08:23:16.617Z,86.24
2023-02-23T08:24:16.790Z,86.55
2023-02-23T08:25:16.949Z,86.86
2023-02-23T08:26:17.126Z,86.55
2023-02-23T08:27:17.285Z,86.76
2023-02-23T08:28:17.427Z,86.86
2023-02-23T08:29:17.621Z,86.55
2023-02-23T08:30:17.772Z,86.13
2023-02-23T08:31:18.380Z,86.03
2023-02-23T08:32:18.173Z,86.65
2023-02-23T08:33:18.316Z,86.30
2023-02-23T08:34:18.513Z,85.89
2023-02-23T08:35:18.670Z,85.78
2023-02-23T08:36:18.828Z,85.58
2023-02-23T08:37:18.994Z,85.23
2023-02-23T08:38:19.166Z,85.23
2023-02-23T08:39:19.365Z,84.92
2023-02-23T08:40:19.515Z,84.81
2023-02-23T08:41:20.042Z,85.13
2023-02-23T08:42:19.776Z,85.68
2023-02-23T08:43:19.937Z,85.54
2023-02-23T08:44:20.105Z,85.44
2023-02-23T08:45:20.268Z,85.44
2023-02-23T08:46:20.515Z,85.47
2023-02-23T08:47:20.615Z,86.13
2023-02-23T08:48:20.744Z,86.76
2023-02-23T08:49:20.899Z,86.96
2023-02-23T08:50:21.060Z,86.71
2023-02-23T08:51:21.487Z,86.41
2023-02-23T08:52:21.349Z,86.05
2023-02-23T08:53:21.496Z,85.85
2023-02-23T08:54:21.639Z,85.58
2023-02-23T08:55:21.838Z,85.99
2023-02-23T08:56:21.962Z,86.51
2023-02-23T08:57:22.124Z,86.36
2023-02-23T08:58:22.264Z,86.36
2023-02-23T08:59:22.433Z,85.99
2023-02-23T09:00:29.659Z,86.51
2023-02-23T09:01:22.950Z,86.96
2023-02-23T09:02:23.071Z,87.48
2023-02-23T09:03:23.033Z,87.44
2023-02-23T09:04:23.217Z,87.27
2023-02-23T09:05:23.434Z,87.48
2023-02-23T09:06:23.572Z,87.48
2023-02-23T09:07:23.746Z,87.54
2023-02-23T09:08:23.887Z,87.34
2023-02-23T09:09:24.078Z,87.34
2023-02-23T09:10:24.367Z,87.65
2023-02-23T09:11:24.423Z,87.44
2023-02-23T09:12:24.571Z,87.19
2023-02-23T09:13:24.721Z,86.68
2023-02-23T09:14:24.881Z,86.47
2023-02-23T09:15:25.048Z,86.12
2023-02-23T09:16:25.186Z,85.77
2023-02-23T09:17:25.330Z,84.94
2023-02-23T09:18:25.480Z,84.70
2023-02-23T09:19:25.641Z,84.19
2023-02-23T09:20:25.804Z,84.39
2023-02-23T09:21:25.970Z,84.29
2023-02-23T09:22:26.125Z,84.05
2023-02-23T09:23:26.249Z,83.47
2023-02-23T09:24:26.412Z,84.08
2023-02-23T09:25:26.558Z,84.08
2023-02-23T09:26:26.711Z,83.94
2023-02-23T09:27:26.848Z,83.47
2023-02-23T09:28:26.981Z,84.08
2023-02-23T09:29:27.179Z,83.53
2023-02-23T09:30:27.429Z,83.87
2023-02-23T09:31:27.540Z,84.49
2023-02-23T09:32:27.681Z,84.49
2023-02-23T09:33:27.788Z,84.59
2023-02-23T09:34:27.962Z,84.08
2023-02-23T09:35:28.091Z,84.14
2023-02-23T09:36:28.227Z,83.73
2023-02-23T09:37:28.377Z,83.84
2023-02-23T09:38:28.534Z,83.80
2023-02-23T09:39:37.596Z,83.59
2023-02-23T09:40:29.798Z,83.18
2023-02-23T09:41:28.915Z,83.59
2023-02-23T09:42:29.079Z,83.59
2023-02-23T09:43:29.184Z,83.90
2023-02-23T09:44:29.350Z,83.59
2023-02-23T09:45:29.496Z,83.04
2023-02-23T09:46:29.731Z,82.39
2023-02-23T09:47:29.773Z,82.32
2023-02-23T09:48:29.904Z,82.79
2023-02-23T09:49:30.046Z,81.52
2023-02-23T09:50:30.170Z,80.42
2023-02-23T09:51:30.294Z,79.66
2023-02-23T09:52:30.424Z,78.46
2023-02-23T09:53:32.753Z,76.48
2023-02-23T09:54:30.704Z,76.07
2023-02-23T09:55:30.837Z,75.86
2023-02-23T09:56:30.959Z,75.86
2023-02-23T09:57:31.078Z,75.59
2023-02-23T09:58:31.198Z,74.32
2023-02-23T09:59:31.355Z,73.71
2023-02-23T10:00:31.450Z,73.91
2023-02-23T10:01:31.629Z,73.85
2023-02-23T10:02:31.784Z,75.28
2023-02-23T10:03:31.896Z,74.32
2023-02-23T10:04:32.081Z,73.88
2023-02-23T10:05:32.067Z,72.58
2023-02-23T10:06:32.157Z,72.04
2023-02-23T10:07:32.272Z,71.77
2023-02-23T10:08:32.401Z,69.25
2023-02-23T10:09:32.519Z,68.33
2023-02-23T10:10:32.621Z,68.13
2023-02-23T10:11:32.695Z,69.62
2023-02-23T10:12:32.778Z,70.17
2023-02-23T10:13:32.881Z,70.23
2023-02-23T10:14:32.991Z,69.49
2023-02-23T10:15:33.076Z,69.25
2023-02-23T10:16:33.169Z,68.54
2023-02-23T10:17:33.280Z,68.71
2023-02-23T10:18:46.151Z,67.35
2023-02-23T10:19:34.450Z,67.63
2023-02-23T10:20:33.523Z,66.52
2023-02-23T10:21:33.621Z,65.97
2023-02-23T10:22:33.708Z,66.14
2023-02-23T10:23:33.797Z,65.53
2023-02-23T10:24:33.869Z,67.12
2023-02-23T10:25:33.948Z,67.52
2023-02-23T10:26:34.027Z,67.63
2023-02-23T10:27:34.107Z,67.49
2023-02-23T10:28:34.162Z,67.05
2023-02-23T10:29:34.237Z,66.18
2023-02-23T10:30:34.365Z,64.73
2023-02-23T10:31:34.659Z,64.96
2023-02-23T10:32:34.583Z,65.16
2023-02-23T10:33:34.533Z,65.80
2023-02-23T10:34:34.609Z,66.88
2023-02-23T10:35:34.699Z,67.19
2023-02-23T10:36:34.770Z,67.80
2023-02-23T10:37:34.856Z,67.57
2023-02-23T10:38:34.933Z,66.21
2023-02-23T10:39:35.007Z,67.39
2023-02-23T10:40:35.078Z,67.74
2023-02-23T10:41:35.155Z,66.31
2023-02-23T10:42:35.210Z,65.67
2023-02-23T10:43:35.278Z,65.70
2023-02-23T10:44:35.383Z,65.97
2023-02-23T10:45:35.453Z,66.21
2023-02-23T10:46:35.596Z,66.82
2023-02-23T10:47:35.551Z,66.58
2023-02-23T10:48:35.652Z,66.12
2023-02-23T10:49:35.709Z,64.64
2023-02-23T10:50:35.775Z,62.98
2023-02-23T10:51:35.842Z,62.98
2023-02-23T10:52:41.526Z,63.11
2023-02-23T10:53:36.919Z,63.95
2023-02-23T10:54:35.946Z,64.36
2023-02-23T10:55:36.029Z,64.18
2023-02-23T10:56:36.067Z,65.41
2023-02-23T10:57:36.143Z,65.68
2023-02-23T10:58:36.198Z,63.76
2023-02-23T10:59:36.262Z,63.08
2023-02-23T11:00:36.351Z,63.49
2023-02-23T11:01:36.521Z,64.03
2023-02-23T11:02:36.580Z,63.82
2023-02-23T11:03:36.469Z,63.85
2023-02-23T11:04:36.552Z,64.56
2023-02-23T11:05:36.647Z,64.94
2023-02-23T11:06:36.685Z,64.33
2023-02-23T11:07:36.758Z,64.30
2023-02-23T11:08:36.825Z,64.10
2023-02-23T11:09:46.620Z,63.66
2023-02-23T11:10:37.949Z,63.02
2023-02-23T11:11:37.015Z,62.45
2023-02-23T11:12:37.064Z,63.95
2023-02-23T11:13:37.150Z,64.76
2023-02-23T11:14:37.173Z,66.05
2023-02-23T11:15:49.841Z,66.69
2023-02-23T11:16:38.276Z,66.79
2023-02-23T11:17:37.327Z,66.29
2023-02-23T11:18:37.377Z,65.14
2023-02-23T11:19:37.428Z,64.50
2023-02-23T11:20:37.504Z,63.35
2023-02-23T11:21:38.828Z,62.92
2023-02-23T11:22:37.626Z,62.66
2023-02-23T11:23:37.700Z,61.11
2023-02-23T11:24:37.750Z,60.78
2023-02-23T11:25:37.806Z,60.58
2023-02-23T11:26:37.927Z,60.91
2023-02-23T11:27:37.969Z,61.14
2023-02-23T11:28:38.056Z,61.85
2023-02-23T11:29:38.090Z,62.05
2023-02-23T11:30:38.355Z,62.01
2023-02-23T11:31:38.457Z,64.00
2023-02-23T11:32:38.339Z,64.33
2023-02-23T11:33:38.479Z,64.56
2023-02-23T11:34:38.418Z,65.61
2023-02-23T11:35:38.520Z,66.55
2023-02-23T11:36:38.551Z,67.36
2023-02-23T11:37:38.645Z,66.86
2023-02-23T11:38:38.694Z,66.72
2023-02-23T11:39:38.770Z,67.10
2023-02-23T11:40:38.822Z,68.11
2023-02-23T11:41:38.908Z,68.08
2023-02-23T11:42:38.972Z,66.93
2023-02-23T11:43:39.033Z,66.49
2023-02-23T11:44:39.102Z,66.60
2023-02-23T11:45:39.216Z,65.99
2023-02-23T11:46:39.336Z,67.16
2023-02-23T11:47:39.322Z,67.97
2023-02-23T11:48:39.379Z,67.88
2023-02-23T11:49:39.446Z,67.33
2023-02-23T11:50:39.511Z,66.60
2023-02-23T11:51:39.613Z,66.39
2023-02-23T11:52:39.678Z,66.96
2023-02-23T11:53:39.742Z,67.67
2023-02-23T11:54:39.847Z,68.28
2023-02-23T11:55:39.946Z,68.21
2023-02-23T11:56:40.032Z,69.36
2023-02-23T11:57:40.101Z,69.02
2023-02-23T11:58:40.169Z,70.28
2023-02-23T11:59:40.258Z,69.13
2023-02-23T12:00:40.329Z,69.74
2023-02-23T12:01:40.424Z,69.26
2023-02-23T12:02:40.572Z,70.14
2023-02-23T12:03:40.512Z,69.84
2023-02-23T12:04:40.697Z,69.30
2023-02-23T12:05:40.665Z,68.45
2023-02-23T12:06:40.827Z,67.30
2023-02-23T12:07:40.823Z,67.61
2023-02-23T12:08:40.910Z,67.50
2023-02-23T12:09:41.006Z,67.10
2023-02-23T12:10:41.121Z,67.30
2023-02-23T12:11:41.188Z,67.00
2023-02-23T12:12:41.344Z,67.61
2023-02-23T12:13:41.324Z,67.54
2023-02-23T12:14:41.406Z,68.66
2023-02-23T12:15:41.488Z,69.23
2023-02-23T12:16:41.663Z,69.94
2023-02-23T12:17:41.609Z,69.94
2023-02-23T12:18:41.702Z,70.28
2023-02-23T12:19:41.775Z,70.58
2023-02-23T12:20:41.888Z,70.25
2023-02-23T12:21:41.954Z,69.81
2023-02-23T12:22:42.046Z,69.06
2023-02-23T12:23:42.123Z,68.79
2023-02-23T12:24:42.228Z,69.26
2023-02-23T12:25:42.311Z,69.26
2023-02-23T12:26:42.406Z,69.67
2023-02-23T12:27:42.498Z,69.74
2023-02-23T12:28:43.571Z,70.25
2023-02-23T12:29:42.666Z,70.89
2023-02-23T12:30:42.803Z,70.99
2023-02-23T12:31:42.981Z,71.60
2023-02-23T12:32:42.980Z,72.04
2023-02-23T12:33:43.069Z,71.97
2023-02-23T12:34:43.195Z,72.65
2023-02-23T12:35:43.288Z,72.65
2023-02-23T12:36:43.413Z,71.60
2023-02-23T12:37:43.492Z,71.36
2023-02-23T12:38:43.599Z,70.59
2023-02-23T12:39:43.715Z,69.06
2023-02-23T12:40:43.807Z,69.06
2023-02-23T12:41:43.900Z,69.53
2023-02-23T12:42:44.005Z,70.79
2023-02-23T12:43:44.095Z,71.43
2023-02-23T12:44:44.225Z,72.38
2023-02-23T12:45:44.366Z,72.78
2023-02-23T12:46:44.389Z,72.34
2023-02-23T12:47:44.503Z,72.75
2023-02-23T12:48:44.595Z,72.62
2023-02-23T12:49:44.698Z,71.50
2023-02-23T12:50:44.799Z,71.70
2023-02-23T12:51:44.908Z,72.01
2023-02-23T12:52:45.015Z,71.47
2023-02-23T12:53:45.118Z,71.40
2023-02-23T12:54:45.275Z,72.14